sensor_id;sensor_type;location;lat;lon;timestamp;P1;durP1;ratioP1;P2;durP2;ratioP2
52029;SDS011;38043;53.224;6.580;2023-02-22T00:00:39;75.78;;;29.80;;
52029;SDS011;38043;53.224;6.580;2023-02-22T00:03:09;86.75;;;31.65;;
52029;SDS011;38043;53.224;6.580;2023-02-22T00:05:35;84.03;;;30.55;;
52029;SDS011;38043;53.224;6.580;2023-02-22T00:10:29;70.97;;;27.52;;
52029;SDS011;38043;53.224;6.580;2023-02-22T00:12:55;76.80;;;28.45;;
52029;SDS011;38043;53.224;6.580;2023-02-22T00:15:21;78.80;;;28.20;;
52029;SDS011;38043;53.224;6.580;2023-02-22T00:17:54;76.68;;;27.65;;
52029;SDS011;38043;53.224;6.580;2023-02-22T00:20:21;74.40;;;27.92;;
52029;SDS011;38043;53.224;6.580;2023-02-22T00:22:47;83.65;;;28.17;;
52029;SDS011;38043;53.224;6.580;2023-02-22T00:27:45;80.05;;;28.02;;
52029;SDS011;38043;53.224;6.580;2023-02-22T00:30:20;72.90;;;26.73;;
52029;SDS011;38043;53.224;6.580;2023-02-22T00:32:51;72.50;;;26.45;;
52029;SDS011;38043;53.224;6.580;2023-02-22T00:35:20;68.95;;;25.90;;
52029;SDS011;38043;53.224;6.580;2023-02-22T00:37:48;70.43;;;25.60;;
52029;SDS011;38043;53.224;6.580;2023-02-22T00:40:19;68.57;;;25.30;;
52029;SDS011;38043;53.224;6.580;2023-02-22T00:42:46;64.05;;;24.27;;
52029;SDS011;38043;53.224;6.580;2023-02-22T00:45:14;69.93;;;24.95;;
52029;SDS011;38043;53.224;6.580;2023-02-22T00:47:42;71.78;;;26.50;;
52029;SDS011;38043;53.224;6.580;2023-02-22T00:50:08;72.10;;;26.95;;
52029;SDS011;38043;53.224;6.580;2023-02-22T00:52:34;64.25;;;24.85;;
52029;SDS011;38043;53.224;6.580;2023-02-22T00:55:00;65.03;;;25.52;;
52029;SDS011;38043;53.224;6.580;2023-02-22T00:57:26;68.65;;;26.58;;
52029;SDS011;38043;53.224;6.580;2023-02-22T00:59:52;71.88;;;26.17;;
52029;SDS011;38043;53.224;6.580;2023-02-22T01:02:19;69.47;;;25.02;;
52029;SDS011;38043;53.224;6.580;2023-02-22T01:04:45;66.22;;;25.25;;
52029;SDS011;38043;53.224;6.580;2023-02-22T01:07:10;64.20;;;24.75;;
52029;SDS011;38043;53.224;6.580;2023-02-22T01:09:36;62.95;;;25.23;;
52029;SDS011;38043;53.224;6.580;2023-02-22T01:12:03;64.07;;;24.85;;
52029;SDS011;38043;53.224;6.580;2023-02-22T01:14:29;75.22;;;25.95;;
52029;SDS011;38043;53.224;6.580;2023-02-22T01:16:55;68.25;;;24.90;;
52029;SDS011;38043;53.224;6.580;2023-02-22T01:19:21;65.63;;;24.70;;
52029;SDS011;38043;53.224;6.580;2023-02-22T01:21:48;59.50;;;23.15;;
52029;SDS011;38043;53.224;6.580;2023-02-22T01:24:15;64.68;;;24.05;;
52029;SDS011;38043;53.224;6.580;2023-02-22T01:26:41;58.05;;;22.13;;
52029;SDS011;38043;53.224;6.580;2023-02-22T01:29:13;55.88;;;21.45;;
52029;SDS011;38043;53.224;6.580;2023-02-22T01:31:43;55.42;;;21.75;;
52029;SDS011;38043;53.224;6.580;2023-02-22T01:34:16;50.38;;;20.75;;
52029;SDS011;38043;53.224;6.580;2023-02-22T01:36:42;51.47;;;20.38;;
52029;SDS011;38043;53.224;6.580;2023-02-22T01:39:08;48.40;;;20.25;;
52029;SDS011;38043;53.224;6.580;2023-02-22T01:41:34;54.60;;;22.60;;
52029;SDS011;38043;53.224;6.580;2023-02-22T01:47:02;44.90;;;19.58;;
52029;SDS011;38043;53.224;6.580;2023-02-22T01:50:02;47.38;;;19.63;;
52029;SDS011;38043;53.224;6.580;2023-02-22T01:52:21;36.45;;;17.65;;
52029;SDS011;38043;53.224;6.580;2023-02-22T01:54:51;40.10;;;18.77;;
52029;SDS011;38043;53.224;6.580;2023-02-22T01:57:23;40.45;;;17.13;;
52029;SDS011;38043;53.224;6.580;2023-02-22T01:59:52;45.70;;;18.27;;
52029;SDS011;38043;53.224;6.580;2023-02-22T02:02:22;36.63;;;16.75;;
52029;SDS011;38043;53.224;6.580;2023-02-22T02:04:49;39.22;;;17.17;;
52029;SDS011;38043;53.224;6.580;2023-02-22T02:07:18;35.72;;;15.55;;
52029;SDS011;38043;53.224;6.580;2023-02-22T02:12:32;34.38;;;16.00;;
52029;SDS011;38043;53.224;6.580;2023-02-22T02:17:47;37.00;;;17.67;;
52029;SDS011;38043;53.224;6.580;2023-02-22T02:20:19;37.30;;;16.65;;
52029;SDS011;38043;53.224;6.580;2023-02-22T02:31:20;35.95;;;18.00;;
52029;SDS011;38043;53.224;6.580;2023-02-22T02:41:59;36.85;;;16.88;;
52029;SDS011;38043;53.224;6.580;2023-02-22T02:44:30;40.65;;;19.15;;
52029;SDS011;38043;53.224;6.580;2023-02-22T02:47:05;42.13;;;19.00;;
52029;SDS011;38043;53.224;6.580;2023-02-22T02:49:38;39.83;;;18.17;;
52029;SDS011;38043;53.224;6.580;2023-02-22T02:52:10;41.53;;;18.58;;
52029;SDS011;38043;53.224;6.580;2023-02-22T02:54:37;38.80;;;18.48;;
52029;SDS011;38043;53.224;6.580;2023-02-22T02:57:03;39.33;;;18.58;;
52029;SDS011;38043;53.224;6.580;2023-02-22T02:59:33;43.22;;;19.42;;
52029;SDS011;38043;53.224;6.580;2023-02-22T03:12:37;39.75;;;18.67;;
52029;SDS011;38043;53.224;6.580;2023-02-22T03:15:21;42.60;;;20.40;;
52029;SDS011;38043;53.224;6.580;2023-02-22T03:20:29;43.22;;;20.42;;
52029;SDS011;38043;53.224;6.580;2023-02-22T03:26:13;45.83;;;21.45;;
52029;SDS011;38043;53.224;6.580;2023-02-22T03:28:52;43.90;;;21.00;;
52029;SDS011;38043;53.224;6.580;2023-02-22T03:31:24;44.63;;;19.92;;
52029;SDS011;38043;53.224;6.580;2023-02-22T03:33:54;44.33;;;20.73;;
52029;SDS011;38043;53.224;6.580;2023-02-22T03:36:27;44.55;;;20.48;;
52029;SDS011;38043;53.224;6.580;2023-02-22T03:39:03;48.05;;;22.33;;
52029;SDS011;38043;53.224;6.580;2023-02-22T03:41:31;48.05;;;21.55;;
52029;SDS011;38043;53.224;6.580;2023-02-22T03:44:10;47.17;;;21.27;;
52029;SDS011;38043;53.224;6.580;2023-02-22T03:46:39;49.00;;;21.60;;
52029;SDS011;38043;53.224;6.580;2023-02-22T03:49:11;47.17;;;20.37;;
52029;SDS011;38043;53.224;6.580;2023-02-22T03:51:44;51.70;;;21.73;;
52029;SDS011;38043;53.224;6.580;2023-02-22T03:54:10;44.20;;;21.08;;
52029;SDS011;38043;53.224;6.580;2023-02-22T03:56:44;47.28;;;22.23;;
52029;SDS011;38043;53.224;6.580;2023-02-22T03:59:16;46.53;;;22.52;;
52029;SDS011;38043;53.224;6.580;2023-02-22T04:01:42;51.95;;;22.92;;
52029;SDS011;38043;53.224;6.580;2023-02-22T04:04:08;49.50;;;22.58;;
52029;SDS011;38043;53.224;6.580;2023-02-22T04:06:34;53.13;;;22.55;;
52029;SDS011;38043;53.224;6.580;2023-02-22T04:09:00;46.10;;;21.35;;
52029;SDS011;38043;53.224;6.580;2023-02-22T04:11:25;46.80;;;21.58;;
52029;SDS011;38043;53.224;6.580;2023-02-22T04:13:51;51.05;;;23.17;;
52029;SDS011;38043;53.224;6.580;2023-02-22T04:16:18;54.72;;;23.67;;
52029;SDS011;38043;53.224;6.580;2023-02-22T04:18:44;48.63;;;22.80;;
52029;SDS011;38043;53.224;6.580;2023-02-22T04:21:10;48.83;;;21.88;;
52029;SDS011;38043;53.224;6.580;2023-02-22T04:23:35;49.15;;;22.60;;
52029;SDS011;38043;53.224;6.580;2023-02-22T04:26:01;53.33;;;23.00;;
52029;SDS011;38043;53.224;6.580;2023-02-22T04:28:27;49.50;;;22.88;;
52029;SDS011;38043;53.224;6.580;2023-02-22T04:30:53;55.63;;;23.20;;
52029;SDS011;38043;53.224;6.580;2023-02-22T04:33:18;51.28;;;22.70;;
52029;SDS011;38043;53.224;6.580;2023-02-22T04:35:44;54.00;;;23.67;;
52029;SDS011;38043;53.224;6.580;2023-02-22T04:38:10;56.33;;;24.80;;
52029;SDS011;38043;53.224;6.580;2023-02-22T04:40:35;54.45;;;24.30;;
52029;SDS011;38043;53.224;6.580;2023-02-22T04:43:01;55.97;;;23.33;;
52029;SDS011;38043;53.224;6.580;2023-02-22T04:45:27;54.80;;;23.55;;
52029;SDS011;38043;53.224;6.580;2023-02-22T04:47:53;55.75;;;24.77;;
52029;SDS011;38043;53.224;6.580;2023-02-22T04:50:18;58.63;;;24.33;;
52029;SDS011;38043;53.224;6.580;2023-02-22T04:52:44;56.17;;;25.20;;
52029;SDS011;38043;53.224;6.580;2023-02-22T04:55:10;55.97;;;24.85;;
52029;SDS011;38043;53.224;6.580;2023-02-22T04:57:36;64.20;;;29.65;;
52029;SDS011;38043;53.224;6.580;2023-02-22T05:00:02;68.40;;;30.27;;
52029;SDS011;38043;53.224;6.580;2023-02-22T05:02:29;66.65;;;29.05;;
52029;SDS011;38043;53.224;6.580;2023-02-22T05:04:54;65.65;;;28.58;;
52029;SDS011;38043;53.224;6.580;2023-02-22T05:07:20;64.38;;;29.45;;
52029;SDS011;38043;53.224;6.580;2023-02-22T05:09:45;61.05;;;28.45;;
52029;SDS011;38043;53.224;6.580;2023-02-22T05:12:11;66.05;;;27.83;;
52029;SDS011;38043;53.224;6.580;2023-02-22T05:14:37;64.13;;;28.40;;
52029;SDS011;38043;53.224;6.580;2023-02-22T05:17:03;63.20;;;27.67;;
52029;SDS011;38043;53.224;6.580;2023-02-22T05:19:28;62.50;;;26.13;;
52029;SDS011;38043;53.224;6.580;2023-02-22T05:21:54;56.92;;;25.67;;
52029;SDS011;38043;53.224;6.580;2023-02-22T05:24:20;64.13;;;26.08;;
52029;SDS011;38043;53.224;6.580;2023-02-22T05:26:46;60.85;;;25.90;;
52029;SDS011;38043;53.224;6.580;2023-02-22T05:29:15;57.00;;;25.77;;
52029;SDS011;38043;53.224;6.580;2023-02-22T05:31:41;58.72;;;26.00;;
52029;SDS011;38043;53.224;6.580;2023-02-22T05:34:06;63.33;;;28.30;;
52029;SDS011;38043;53.224;6.580;2023-02-22T05:36:32;67.68;;;27.92;;
52029;SDS011;38043;53.224;6.580;2023-02-22T05:38:58;60.20;;;27.92;;
52029;SDS011;38043;53.224;6.580;2023-02-22T05:41:23;72.93;;;31.90;;
52029;SDS011;38043;53.224;6.580;2023-02-22T05:43:49;72.95;;;32.58;;
52029;SDS011;38043;53.224;6.580;2023-02-22T05:46:14;65.88;;;29.02;;
52029;SDS011;38043;53.224;6.580;2023-02-22T05:48:40;68.13;;;30.92;;
52029;SDS011;38043;53.224;6.580;2023-02-22T05:51:06;68.53;;;28.60;;
52029;SDS011;38043;53.224;6.580;2023-02-22T05:53:33;67.32;;;28.80;;
52029;SDS011;38043;53.224;6.580;2023-02-22T05:55:59;70.63;;;30.40;;
52029;SDS011;38043;53.224;6.580;2023-02-22T05:58:24;81.55;;;33.53;;
52029;SDS011;38043;53.224;6.580;2023-02-22T06:00:50;70.97;;;31.55;;
52029;SDS011;38043;53.224;6.580;2023-02-22T06:03:16;77.28;;;32.33;;
52029;SDS011;38043;53.224;6.580;2023-02-22T06:05:41;80.07;;;32.40;;
52029;SDS011;38043;53.224;6.580;2023-02-22T06:08:07;75.03;;;30.80;;
52029;SDS011;38043;53.224;6.580;2023-02-22T06:10:33;74.35;;;32.10;;
52029;SDS011;38043;53.224;6.580;2023-02-22T06:12:58;73.25;;;32.20;;
52029;SDS011;38043;53.224;6.580;2023-02-22T06:15:25;77.50;;;33.42;;
52029;SDS011;38043;53.224;6.580;2023-02-22T06:17:52;78.82;;;32.90;;
52029;SDS011;38043;53.224;6.580;2023-02-22T06:20:20;84.90;;;35.28;;
52029;SDS011;38043;53.224;6.580;2023-02-22T06:22:48;85.60;;;35.17;;
52029;SDS011;38043;53.224;6.580;2023-02-22T06:25:16;85.95;;;34.50;;
52029;SDS011;38043;53.224;6.580;2023-02-22T06:27:43;82.43;;;37.05;;
52029;SDS011;38043;53.224;6.580;2023-02-22T06:30:10;85.88;;;35.60;;
52029;SDS011;38043;53.224;6.580;2023-02-22T06:35:03;86.47;;;35.97;;
52029;SDS011;38043;53.224;6.580;2023-02-22T06:37:29;84.72;;;36.53;;
52029;SDS011;38043;53.224;6.580;2023-02-22T06:39:54;83.95;;;36.72;;
52029;SDS011;38043;53.224;6.580;2023-02-22T06:42:20;86.60;;;37.45;;
52029;SDS011;38043;53.224;6.580;2023-02-22T06:44:46;87.22;;;36.10;;
52029;SDS011;38043;53.224;6.580;2023-02-22T06:47:11;83.28;;;35.17;;
52029;SDS011;38043;53.224;6.580;2023-02-22T06:49:37;88.13;;;35.40;;
52029;SDS011;38043;53.224;6.580;2023-02-22T06:52:04;84.03;;;36.88;;
52029;SDS011;38043;53.224;6.580;2023-02-22T06:54:30;86.90;;;38.20;;
52029;SDS011;38043;53.224;6.580;2023-02-22T06:56:56;86.60;;;37.80;;
52029;SDS011;38043;53.224;6.580;2023-02-22T06:59:22;94.45;;;39.30;;
52029;SDS011;38043;53.224;6.580;2023-02-22T07:01:47;90.07;;;39.00;;
52029;SDS011;38043;53.224;6.580;2023-02-22T07:04:13;86.95;;;37.30;;
52029;SDS011;38043;53.224;6.580;2023-02-22T07:06:44;90.70;;;39.10;;
52029;SDS011;38043;53.224;6.580;2023-02-22T07:09:11;94.82;;;37.65;;
52029;SDS011;38043;53.224;6.580;2023-02-22T07:11:38;97.85;;;40.42;;
52029;SDS011;38043;53.224;6.580;2023-02-22T07:14:04;99.68;;;41.08;;
52029;SDS011;38043;53.224;6.580;2023-02-22T07:16:30;101.00;;;41.28;;
52029;SDS011;38043;53.224;6.580;2023-02-22T07:18:55;107.00;;;41.28;;
52029;SDS011;38043;53.224;6.580;2023-02-22T07:21:21;95.57;;;38.40;;
52029;SDS011;38043;53.224;6.580;2023-02-22T07:23:50;95.85;;;40.28;;
52029;SDS011;38043;53.224;6.580;2023-02-22T07:26:20;95.30;;;39.05;;
52029;SDS011;38043;53.224;6.580;2023-02-22T07:28:47;97.15;;;41.60;;
52029;SDS011;38043;53.224;6.580;2023-02-22T07:31:15;105.53;;;43.07;;
52029;SDS011;38043;53.224;6.580;2023-02-22T07:33:41;101.15;;;42.63;;
52029;SDS011;38043;53.224;6.580;2023-02-22T07:36:07;99.70;;;41.55;;
52029;SDS011;38043;53.224;6.580;2023-02-22T07:38:33;103.90;;;42.15;;
52029;SDS011;38043;53.224;6.580;2023-02-22T07:40:58;103.13;;;42.40;;
52029;SDS011;38043;53.224;6.580;2023-02-22T07:43:25;107.43;;;41.38;;
52029;SDS011;38043;53.224;6.580;2023-02-22T07:45:53;99.03;;;41.80;;
52029;SDS011;38043;53.224;6.580;2023-02-22T07:48:20;100.45;;;41.67;;
52029;SDS011;38043;53.224;6.580;2023-02-22T07:50:47;103.13;;;41.50;;
52029;SDS011;38043;53.224;6.580;2023-02-22T07:53:17;104.22;;;42.00;;
52029;SDS011;38043;53.224;6.580;2023-02-22T07:55:54;99.93;;;42.08;;
52029;SDS011;38043;53.224;6.580;2023-02-22T07:58:21;112.25;;;44.17;;
52029;SDS011;38043;53.224;6.580;2023-02-22T08:00:48;105.18;;;42.63;;
52029;SDS011;38043;53.224;6.580;2023-02-22T08:03:15;96.63;;;41.05;;
52029;SDS011;38043;53.224;6.580;2023-02-22T08:05:46;93.32;;;41.25;;
52029;SDS011;38043;53.224;6.580;2023-02-22T08:08:14;102.97;;;42.58;;
52029;SDS011;38043;53.224;6.580;2023-02-22T08:10:40;107.85;;;45.15;;
52029;SDS011;38043;53.224;6.580;2023-02-22T08:13:06;110.15;;;44.17;;
52029;SDS011;38043;53.224;6.580;2023-02-22T08:15:35;108.00;;;43.80;;
52029;SDS011;38043;53.224;6.580;2023-02-22T08:18:03;107.82;;;44.53;;
52029;SDS011;38043;53.224;6.580;2023-02-22T08:20:33;105.72;;;43.97;;
52029;SDS011;38043;53.224;6.580;2023-02-22T08:22:59;105.13;;;44.85;;
52029;SDS011;38043;53.224;6.580;2023-02-22T08:25:26;102.97;;;43.20;;
52029;SDS011;38043;53.224;6.580;2023-02-22T08:27:55;108.43;;;43.20;;
52029;SDS011;38043;53.224;6.580;2023-02-22T08:30:25;113.35;;;44.90;;
52029;SDS011;38043;53.224;6.580;2023-02-22T08:32:51;105.88;;;42.97;;
52029;SDS011;38043;53.224;6.580;2023-02-22T08:35:17;106.88;;;44.00;;
52029;SDS011;38043;53.224;6.580;2023-02-22T08:37:48;105.15;;;44.13;;
52029;SDS011;38043;53.224;6.580;2023-02-22T08:40:16;104.53;;;43.88;;
52029;SDS011;38043;53.224;6.580;2023-02-22T08:42:48;101.40;;;43.50;;
52029;SDS011;38043;53.224;6.580;2023-02-22T08:45:14;110.85;;;44.63;;
52029;SDS011;38043;53.224;6.580;2023-02-22T08:47:40;104.45;;;44.78;;
52029;SDS011;38043;53.224;6.580;2023-02-22T08:50:07;109.25;;;44.67;;
52029;SDS011;38043;53.224;6.580;2023-02-22T08:52:34;102.82;;;44.78;;
52029;SDS011;38043;53.224;6.580;2023-02-22T08:55:00;105.05;;;43.15;;
52029;SDS011;38043;53.224;6.580;2023-02-22T08:57:26;105.45;;;45.38;;
52029;SDS011;38043;53.224;6.580;2023-02-22T08:59:51;104.57;;;44.13;;
52029;SDS011;38043;53.224;6.580;2023-02-22T09:02:18;104.63;;;43.35;;
52029;SDS011;38043;53.224;6.580;2023-02-22T09:04:45;105.35;;;43.35;;
52029;SDS011;38043;53.224;6.580;2023-02-22T09:07:12;107.00;;;47.45;;
52029;SDS011;38043;53.224;6.580;2023-02-22T09:09:38;100.05;;;42.83;;
52029;SDS011;38043;53.224;6.580;2023-02-22T09:12:06;98.30;;;42.60;;
52029;SDS011;38043;53.224;6.580;2023-02-22T09:14:31;96.28;;;42.70;;
52029;SDS011;38043;53.224;6.580;2023-02-22T09:16:58;90.57;;;40.78;;
52029;SDS011;38043;53.224;6.580;2023-02-22T09:19:23;94.05;;;39.90;;
52029;SDS011;38043;53.224;6.580;2023-02-22T09:21:52;99.50;;;43.45;;
52029;SDS011;38043;53.224;6.580;2023-02-22T09:24:19;92.55;;;40.03;;
52029;SDS011;38043;53.224;6.580;2023-02-22T09:26:47;94.22;;;41.38;;
52029;SDS011;38043;53.224;6.580;2023-02-22T09:29:18;93.55;;;40.47;;
52029;SDS011;38043;53.224;6.580;2023-02-22T09:31:46;90.70;;;41.38;;
52029;SDS011;38043;53.224;6.580;2023-02-22T09:34:13;94.88;;;41.40;;
52029;SDS011;38043;53.224;6.580;2023-02-22T09:36:40;92.40;;;40.45;;
52029;SDS011;38043;53.224;6.580;2023-02-22T09:39:06;91.85;;;40.38;;
52029;SDS011;38043;53.224;6.580;2023-02-22T09:41:38;93.38;;;41.10;;
52029;SDS011;38043;53.224;6.580;2023-02-22T09:44:17;91.47;;;40.20;;
52029;SDS011;38043;53.224;6.580;2023-02-22T09:47:02;96.80;;;42.25;;
52029;SDS011;38043;53.224;6.580;2023-02-22T09:52:22;91.15;;;39.28;;
52029;SDS011;38043;53.224;6.580;2023-02-22T09:55:08;93.97;;;40.28;;
52029;SDS011;38043;53.224;6.580;2023-02-22T09:57:44;91.13;;;41.97;;
52029;SDS011;38043;53.224;6.580;2023-02-22T10:00:16;96.75;;;41.83;;
52029;SDS011;38043;53.224;6.580;2023-02-22T10:02:54;96.13;;;41.70;;
52029;SDS011;38043;53.224;6.580;2023-02-22T10:05:36;90.18;;;40.63;;
52029;SDS011;38043;53.224;6.580;2023-02-22T10:08:18;92.13;;;39.90;;
52029;SDS011;38043;53.224;6.580;2023-02-22T10:10:45;90.10;;;40.80;;
52029;SDS011;38043;53.224;6.580;2023-02-22T10:18:50;95.45;;;40.90;;
52029;SDS011;38043;53.224;6.580;2023-02-22T10:24:57;94.03;;;39.10;;
52029;SDS011;38043;53.224;6.580;2023-02-22T10:30:16;93.00;;;38.90;;
52029;SDS011;38043;53.224;6.580;2023-02-22T10:35:43;99.07;;;41.55;;
52029;SDS011;38043;53.224;6.580;2023-02-22T10:38:19;93.55;;;39.95;;
52029;SDS011;38043;53.224;6.580;2023-02-22T10:43:37;89.07;;;37.97;;
52029;SDS011;38043;53.224;6.580;2023-02-22T10:46:06;90.05;;;38.75;;
52029;SDS011;38043;53.224;6.580;2023-02-22T10:48:37;92.72;;;38.97;;
52029;SDS011;38043;53.224;6.580;2023-02-22T10:51:05;86.70;;;40.22;;
52029;SDS011;38043;53.224;6.580;2023-02-22T10:56:17;92.30;;;39.75;;
52029;SDS011;38043;53.224;6.580;2023-02-22T10:58:53;98.60;;;41.25;;
52029;SDS011;38043;53.224;6.580;2023-02-22T11:03:54;93.53;;;41.95;;
52029;SDS011;38043;53.224;6.580;2023-02-22T11:06:42;90.40;;;40.15;;
52029;SDS011;38043;53.224;6.580;2023-02-22T11:09:14;93.95;;;41.30;;
52029;SDS011;38043;53.224;6.580;2023-02-22T11:11:43;89.20;;;40.38;;
52029;SDS011;38043;53.224;6.580;2023-02-22T11:14:11;91.07;;;39.70;;
52029;SDS011;38043;53.224;6.580;2023-02-22T11:16:51;85.22;;;38.25;;
52029;SDS011;38043;53.224;6.580;2023-02-22T11:19:21;85.43;;;39.33;;
52029;SDS011;38043;53.224;6.580;2023-02-22T11:21:50;85.40;;;39.35;;
52029;SDS011;38043;53.224;6.580;2023-02-22T11:24:19;84.88;;;39.13;;
52029;SDS011;38043;53.224;6.580;2023-02-22T11:26:54;83.63;;;38.13;;
52029;SDS011;38043;53.224;6.580;2023-02-22T11:29:26;83.70;;;39.33;;
52029;SDS011;38043;53.224;6.580;2023-02-22T11:32:00;83.85;;;38.40;;
52029;SDS011;38043;53.224;6.580;2023-02-22T11:34:39;86.13;;;39.92;;
52029;SDS011;38043;53.224;6.580;2023-02-22T11:40:09;75.43;;;37.83;;
52029;SDS011;38043;53.224;6.580;2023-02-22T11:42:46;80.82;;;37.80;;
52029;SDS011;38043;53.224;6.580;2023-02-22T11:45:14;81.78;;;37.28;;
52029;SDS011;38043;53.224;6.580;2023-02-22T11:47:46;77.82;;;37.65;;
52029;SDS011;38043;53.224;6.580;2023-02-22T11:52:59;84.15;;;37.05;;
52029;SDS011;38043;53.224;6.580;2023-02-22T11:55:53;79.13;;;35.78;;
52029;SDS011;38043;53.224;6.580;2023-02-22T11:58:45;84.30;;;37.88;;
52029;SDS011;38043;53.224;6.580;2023-02-22T12:09:07;81.72;;;36.63;;
52029;SDS011;38043;53.224;6.580;2023-02-22T12:12:03;77.55;;;34.72;;
52029;SDS011;38043;53.224;6.580;2023-02-22T12:25:37;73.25;;;32.75;;
52029;SDS011;38043;53.224;6.580;2023-02-22T12:28:34;69.63;;;31.15;;
52029;SDS011;38043;53.224;6.580;2023-02-22T12:31:30;71.93;;;31.63;;
52029;SDS011;38043;53.224;6.580;2023-02-22T12:34:12;73.72;;;32.40;;
52029;SDS011;38043;53.224;6.580;2023-02-22T12:39:48;68.18;;;29.90;;
52029;SDS011;38043;53.224;6.580;2023-02-22T12:42:17;72.00;;;30.83;;
52029;SDS011;38043;53.224;6.580;2023-02-22T12:44:54;74.07;;;31.38;;
52029;SDS011;38043;53.224;6.580;2023-02-22T12:47:30;76.45;;;32.63;;
52029;SDS011;38043;53.224;6.580;2023-02-22T12:50:11;73.60;;;32.10;;
52029;SDS011;38043;53.224;6.580;2023-02-22T12:55:22;73.97;;;32.88;;
52029;SDS011;38043;53.224;6.580;2023-02-22T13:01:14;70.90;;;30.38;;
52029;SDS011;38043;53.224;6.580;2023-02-22T13:03:46;70.05;;;30.25;;
52029;SDS011;38043;53.224;6.580;2023-02-22T13:09:09;75.40;;;32.08;;
52029;SDS011;38043;53.224;6.580;2023-02-22T13:11:50;74.93;;;32.50;;
52029;SDS011;38043;53.224;6.580;2023-02-22T13:27:49;76.13;;;32.47;;
52029;SDS011;38043;53.224;6.580;2023-02-22T13:30:38;77.18;;;31.88;;
52029;SDS011;38043;53.224;6.580;2023-02-22T13:33:24;72.90;;;30.63;;
52029;SDS011;38043;53.224;6.580;2023-02-22T13:36:12;76.43;;;31.45;;
52029;SDS011;38043;53.224;6.580;2023-02-22T13:52:21;68.97;;;30.13;;
52029;SDS011;38043;53.224;6.580;2023-02-22T13:54:53;66.68;;;28.75;;
52029;SDS011;38043;53.224;6.580;2023-02-22T13:57:23;72.15;;;29.42;;
52029;SDS011;38043;53.224;6.580;2023-02-22T14:08:03;63.20;;;28.40;;
52029;SDS011;38043;53.224;6.580;2023-02-22T14:10:37;67.50;;;27.73;;
52029;SDS011;38043;53.224;6.580;2023-02-22T14:13:11;64.63;;;27.48;;
52029;SDS011;38043;53.224;6.580;2023-02-22T14:18:40;65.55;;;28.38;;
52029;SDS011;38043;53.224;6.580;2023-02-22T14:21:08;67.22;;;28.05;;
52029;SDS011;38043;53.224;6.580;2023-02-22T14:23:51;61.42;;;27.15;;
52029;SDS011;38043;53.224;6.580;2023-02-22T14:26:24;70.93;;;28.80;;
52029;SDS011;38043;53.224;6.580;2023-02-22T14:28:52;63.38;;;28.05;;
52029;SDS011;38043;53.224;6.580;2023-02-22T14:36:56;69.07;;;28.52;;
52029;SDS011;38043;53.224;6.580;2023-02-22T14:47:43;68.80;;;28.52;;
52029;SDS011;38043;53.224;6.580;2023-02-22T14:50:20;65.95;;;28.45;;
52029;SDS011;38043;53.224;6.580;2023-02-22T14:52:55;71.70;;;29.15;;
52029;SDS011;38043;53.224;6.580;2023-02-22T14:55:36;69.57;;;29.60;;
52029;SDS011;38043;53.224;6.580;2023-02-22T14:58:31;64.73;;;29.00;;
52029;SDS011;38043;53.224;6.580;2023-02-22T15:01:14;71.63;;;28.77;;
52029;SDS011;38043;53.224;6.580;2023-02-22T15:03:45;72.90;;;29.08;;
52029;SDS011;38043;53.224;6.580;2023-02-22T15:06:19;73.57;;;29.02;;
52029;SDS011;38043;53.224;6.580;2023-02-22T15:08:47;73.55;;;29.48;;
52029;SDS011;38043;53.224;6.580;2023-02-22T15:11:29;67.00;;;29.35;;
52029;SDS011;38043;53.224;6.580;2023-02-22T15:16:22;72.38;;;30.05;;
52029;SDS011;38043;53.224;6.580;2023-02-22T15:18:53;67.68;;;26.70;;
52029;SDS011;38043;53.224;6.580;2023-02-22T15:21:23;74.45;;;30.05;;
52029;SDS011;38043;53.224;6.580;2023-02-22T15:23:52;70.32;;;29.42;;
52029;SDS011;38043;53.224;6.580;2023-02-22T15:26:38;72.13;;;30.63;;
52029;SDS011;38043;53.224;6.580;2023-02-22T15:29:12;69.85;;;29.23;;
52029;SDS011;38043;53.224;6.580;2023-02-22T15:31:41;69.03;;;28.83;;
52029;SDS011;38043;53.224;6.580;2023-02-22T15:36:43;70.43;;;28.10;;
52029;SDS011;38043;53.224;6.580;2023-02-22T15:39:30;75.90;;;29.73;;
52029;SDS011;38043;53.224;6.580;2023-02-22T15:42:05;74.90;;;30.05;;
52029;SDS011;38043;53.224;6.580;2023-02-22T15:44:34;75.63;;;31.05;;
52029;SDS011;38043;53.224;6.580;2023-02-22T15:47:05;74.15;;;30.08;;
52029;SDS011;38043;53.224;6.580;2023-02-22T15:49:31;79.47;;;32.88;;
52029;SDS011;38043;53.224;6.580;2023-02-22T15:52:05;74.38;;;29.95;;
52029;SDS011;38043;53.224;6.580;2023-02-22T15:54:41;70.70;;;27.77;;
52029;SDS011;38043;53.224;6.580;2023-02-22T15:57:12;70.43;;;28.30;;
52029;SDS011;38043;53.224;6.580;2023-02-22T15:59:43;72.50;;;29.92;;
52029;SDS011;38043;53.224;6.580;2023-02-22T16:05:12;67.05;;;28.65;;
52029;SDS011;38043;53.224;6.580;2023-02-22T16:07:43;63.03;;;27.75;;
52029;SDS011;38043;53.224;6.580;2023-02-22T16:13:07;68.93;;;28.52;;
52029;SDS011;38043;53.224;6.580;2023-02-22T16:15:57;72.95;;;29.83;;
52029;SDS011;38043;53.224;6.580;2023-02-22T16:18:47;72.00;;;29.73;;
52029;SDS011;38043;53.224;6.580;2023-02-22T16:21:15;73.55;;;28.58;;
52029;SDS011;38043;53.224;6.580;2023-02-22T16:23:44;71.85;;;28.20;;
52029;SDS011;38043;53.224;6.580;2023-02-22T16:26:22;75.35;;;30.95;;
52029;SDS011;38043;53.224;6.580;2023-02-22T16:28:59;72.80;;;29.83;;
52029;SDS011;38043;53.224;6.580;2023-02-22T16:31:26;74.75;;;30.33;;
52029;SDS011;38043;53.224;6.580;2023-02-22T16:33:54;77.05;;;31.98;;
52029;SDS011;38043;53.224;6.580;2023-02-22T16:36:22;77.22;;;32.00;;
52029;SDS011;38043;53.224;6.580;2023-02-22T16:38:59;75.05;;;29.77;;
52029;SDS011;38043;53.224;6.580;2023-02-22T16:41:31;74.57;;;30.90;;
52029;SDS011;38043;53.224;6.580;2023-02-22T16:43:56;71.13;;;30.35;;
52029;SDS011;38043;53.224;6.580;2023-02-22T16:46:22;66.88;;;29.98;;
52029;SDS011;38043;53.224;6.580;2023-02-22T16:48:48;69.95;;;30.88;;
52029;SDS011;38043;53.224;6.580;2023-02-22T16:51:20;74.57;;;30.00;;
52029;SDS011;38043;53.224;6.580;2023-02-22T16:53:49;80.63;;;31.38;;
52029;SDS011;38043;53.224;6.580;2023-02-22T16:56:18;77.65;;;30.90;;
52029;SDS011;38043;53.224;6.580;2023-02-22T16:58:47;76.13;;;31.83;;
52029;SDS011;38043;53.224;6.580;2023-02-22T17:01:14;70.38;;;28.48;;
52029;SDS011;38043;53.224;6.580;2023-02-22T17:03:41;78.70;;;31.00;;
52029;SDS011;38043;53.224;6.580;2023-02-22T17:06:07;70.35;;;29.67;;
52029;SDS011;38043;53.224;6.580;2023-02-22T17:08:37;69.40;;;29.80;;
52029;SDS011;38043;53.224;6.580;2023-02-22T17:11:03;68.50;;;29.17;;
52029;SDS011;38043;53.224;6.580;2023-02-22T17:13:30;70.20;;;29.35;;
52029;SDS011;38043;53.224;6.580;2023-02-22T17:15:56;66.28;;;30.35;;
52029;SDS011;38043;53.224;6.580;2023-02-22T17:18:22;65.57;;;28.92;;
52029;SDS011;38043;53.224;6.580;2023-02-22T17:20:52;69.22;;;29.08;;
52029;SDS011;38043;53.224;6.580;2023-02-22T17:23:19;71.72;;;30.25;;
52029;SDS011;38043;53.224;6.580;2023-02-22T17:28:15;72.18;;;31.33;;
52029;SDS011;38043;53.224;6.580;2023-02-22T17:30:40;66.47;;;29.48;;
52029;SDS011;38043;53.224;6.580;2023-02-22T17:33:08;68.88;;;30.45;;